Observations for Trim Market St
| Time | AQI | Temp °C | Hum % | Pres Pa | CO μg/m³ | H₂S μg/m³ | NO μg/m³ | NO₂ μg/m³ | O₃ μg/m³ | SO₂ μg/m³ | PM1 μg/m³ | PM2.5 μg/m³ | PM10 μg/m³ |
|---|---|---|---|---|---|---|---|---|---|---|---|---|---|
| Friday 21 August 2026 | |||||||||||||
| 08:03 | 2 | 20.4 | 58 | 56,376 | 0.78 | 0 | 2.82 | 8.23 | 34.71 | 0 | 0 | 1.6 | 1.95 |
| 08:02 | 2 | 20.2 | 59 | 56,205 | 0.77 | 0 | 3.1 | 7.63 | 28.83 | 0 | 0 | 2.58 | 4.06 |
| 08:01 | 2 | 20.1 | 59 | 56,330 | 0.78 | 0 | 7 | 11.26 | 30 | 0 | 0 | 1.55 | 2.7 |
| 08:00 | 2 | 19.9 | 60 | 56,496 | 0.85 | 0 | 9.37 | 12.7 | 24.77 | 0 | 0.71 | 4.53 | 6.16 |
| 07:59 | 2 | 19.7 | 60 | 56,747 | 1 | 0 | 12.24 | 44.09 | 27.45 | 0 | 0.71 | 2.5 | 3.43 |
| 07:58 | 2 | 19.5 | 61 | 56,912 | 1.01 | 0 | 12.18 | 41.69 | 23.6 | 0 | 0.71 | 3.48 | 4.81 |
| 07:57 | 2 | 19.3 | 61 | 57,135 | 1 | 0 | 10.91 | 20.05 | 23.7 | 0 | 0 | 2.46 | 3.46 |
| 07:56 | 2 | 19.1 | 62 | 57,314 | 1.03 | 0 | 5.75 | 37.62 | 27.69 | 0 | 0 | 2.44 | 3.48 |
| 07:55 | 2 | 18.9 | 62 | 57,416 | 1.02 | 0 | 6.33 | 16.49 | 24.02 | 0 | 0.71 | 2.92 | 4.17 |
| 07:54 | 2 | 18.7 | 63 | 57,523 | 0.96 | 0 | 8.49 | 16.45 | 24.09 | 0 | 0.71 | 2.39 | 3.52 |
| 07:52 | 2 | 18.3 | 64 | 57,545 | 0.84 | 0 | 4.46 | 12.69 | 23.69 | 0 | 0.71 | 2.33 | 3.57 |
| 07:51 | 2 | 18.1 | 65 | 57,515 | 0.82 | 0 | 4.3 | 14.56 | 24.71 | 0 | 0 | 2.8 | 4.24 |
| 07:50 | 2 | 17.9 | 66 | 57,476 | 0.88 | 0 | 4.06 | 8.45 | 20.57 | 0 | 0 | 2.77 | 4.26 |
| 07:49 | 2 | 17.7 | 66 | 57,427 | 0.86 | 0 | 3.89 | 6.68 | 23.72 | 0 | 0 | 2.75 | 5.58 |
| 07:48 | 2 | 17.6 | 67 | 57,366 | 0.79 | 0 | 4.84 | 8.83 | 26.59 | 0 | 0 | 1.74 | 3 |
| 07:47 | 2 | 17.4 | 67 | 57,303 | 0.82 | 0 | 6.48 | 9.83 | 23.26 | 0 | 0 | 1.72 | 4.31 |
| 07:46 | 2 | 17.2 | 68 | 57,226 | 0.92 | 0 | 6.97 | 17.08 | 21.01 | 0 | 0 | 2.19 | 4.32 |
| 07:45 | 2 | 17 | 68 | 57,134 | 0.95 | 0 | 5.2 | 19.81 | 22.87 | 0 | 0.71 | 3.15 | 5.61 |
| 07:44 | 2 | 16.9 | 68 | 57,033 | 0.97 | 0 | 5.39 | 19.5 | 18.09 | 0 | 0 | 1.66 | 3.72 |
| 07:43 | 2 | 16.7 | 69 | 56,912 | 0.8 | 0 | 4.4 | 9.65 | 25.65 | 0 | 0.71 | 2.61 | 5 |